Time;durP1;ratioP1;P1;durP2;ratioP2;P2;SDS_P1;SDS_P2;PMS_P1;PMS_P2;Temp;Humidity;BMP_temperature;BMP_pressure;BME280_temperature;BME280_humidity;BME280_pressure;Samples;Min_cycle;Max_cycle;Signal;HPM_P1;HPM_P2
2023/05/25 04:30:09;;;;;;;16.40;6.27;;;14.20;66.70;;;;;;6132124;23;20016;-75
2023/05/25 04:32:36;;;;;;;17.80;6.10;;;14.20;66.70;;;;;;5006368;28;20034;-75
2023/05/25 04:35:02;;;;;;;19.75;6.45;;;14.20;66.60;;;;;;4995969;28;20037;-75
2023/05/25 04:37:29;;;;;;;14.88;6.43;;;14.20;66.50;;;;;;4992639;28;20023;-75
2023/05/25 04:39:56;;;;;;;13.65;6.03;;;14.20;66.70;;;;;;4992892;28;20026;-75
2023/05/25 04:42:22;;;;;;;9.55;5.07;;;14.20;66.90;;;;;;4993178;28;20026;-74
2023/05/25 04:44:50;;;;;;;10.07;6.05;;;14.20;66.80;;;;;;4996313;28;20065;-75
2023/05/25 04:47:15;;;;;;;17.90;6.50;;;14.20;66.50;;;;;;5012519;28;20026;-75
2023/05/25 04:49:41;;;;;;;16.02;5.97;;;14.20;67.00;;;;;;4997249;28;20041;-74
2023/05/25 04:52:07;;;;;;;14.13;6.22;;;14.20;66.60;;;;;;4986746;28;20026;-75
2023/05/25 04:54:33;;;;;;;12.90;5.28;;;14.20;66.80;;;;;;5012258;28;20030;-76
2023/05/25 04:56:58;;;;;;;14.07;5.75;;;14.20;66.60;;;;;;4993903;28;20033;-76
2023/05/25 04:59:24;;;;;;;12.82;5.78;;;14.30;66.10;;;;;;5012163;28;20026;-78
2023/05/25 05:01:50;;;;;;;14.60;6.28;;;14.30;65.60;;;;;;5005612;28;20776;-78
2023/05/25 05:04:16;;;;;;;13.60;6.35;;;14.30;65.80;;;;;;5028042;28;20041;-78
2023/05/25 05:06:42;;;;;;;15.35;6.07;;;14.30;65.30;;;;;;5022205;28;20079;-78
2023/05/25 05:09:08;;;;;;;11.40;6.53;;;14.30;65.80;;;;;;5018072;28;20033;-78
2023/05/25 05:11:33;;;;;;;15.65;6.75;;;14.30;65.50;;;;;;5002819;28;20464;-78
2023/05/25 05:13:59;;;;;;;9.32;5.97;;;14.30;65.60;;;;;;4978836;28;20481;-78
2023/05/25 05:16:25;;;;;;;11.02;6.18;;;14.40;64.80;;;;;;4978916;28;20034;-77
2023/05/25 05:18:50;;;;;;;12.18;5.63;;;14.40;65.60;;;;;;4997768;28;20069;-78
2023/05/25 05:21:16;;;;;;;10.98;5.38;;;14.40;65.30;;;;;;5014996;28;20018;-80
2023/05/25 05:23:42;;;;;;;9.88;6.25;;;14.50;65.50;;;;;;5011153;28;20533;-78
2023/05/25 05:26:10;;;;;;;11.52;6.10;;;14.40;65.10;;;;;;5013091;28;20033;-76
2023/05/25 05:28:36;;;;;;;17.15;6.88;;;14.50;64.80;;;;;;5014532;28;20496;-76
2023/05/25 05:31:02;;;;;;;12.80;5.95;;;14.40;66.00;;;;;;5014030;28;20052;-75
2023/05/25 05:33:27;;;;;;;10.20;6.32;;;14.50;65.90;;;;;;4994729;28;20136;-76
2023/05/25 05:35:53;;;;;;;17.13;6.43;;;14.50;65.40;;;;;;4993610;28;20548;-76
2023/05/25 05:38:20;;;;;;;12.48;5.95;;;14.50;64.80;;;;;;5019838;28;20084;-76
2023/05/25 05:40:45;;;;;;;10.25;5.75;;;14.50;64.60;;;;;;5014940;28;20029;-76
2023/05/25 05:43:12;;;;;;;11.63;6.00;;;14.50;65.40;;;;;;4983479;28;20125;-76
2023/05/25 05:45:37;;;;;;;10.55;5.93;;;14.50;66.20;;;;;;5001122;28;20031;-76
2023/05/25 05:48:03;;;;;;;15.18;5.95;;;14.50;65.40;;;;;;5014725;28;20037;-76
2023/05/25 05:50:29;;;;;;;13.40;6.07;;;14.60;65.20;;;;;;5015620;28;20034;-76
2023/05/25 05:52:55;;;;;;;13.55;6.60;;;14.60;65.80;;;;;;4996969;28;20041;-76
2023/05/25 05:55:21;;;;;;;15.60;6.15;;;14.60;66.90;;;;;;5014913;28;20026;-76
2023/05/25 05:57:46;;;;;;;15.73;7.25;;;14.60;67.10;;;;;;5015346;28;20049;-76
2023/05/25 06:00:13;;;;;;;12.98;6.90;;;14.60;66.50;;;;;;4997110;28;20098;-76
2023/05/25 06:02:39;;;;;;;13.38;6.45;;;14.70;66.90;;;;;;4995878;28;20026;-77
2023/05/25 06:05:05;;;;;;;16.90;6.47;;;14.70;66.90;;;;;;5015348;28;20032;-76
2023/05/25 06:07:33;;;;;;;15.40;7.18;;;14.70;66.20;;;;;;4996468;28;20053;-77
2023/05/25 06:10:00;;;;;;;15.25;6.85;;;14.80;67.50;;;;;;4996713;28;20023;-76
2023/05/25 06:12:25;;;;;;;19.85;7.80;;;14.80;67.00;;;;;;5017457;28;20029;-77
2023/05/25 06:14:51;;;;;;;15.05;6.60;;;14.80;65.80;;;;;;5035222;28;20057;-76
2023/05/25 06:17:17;;;;;;;12.98;6.78;;;14.80;66.70;;;;;;5010859;28;20580;-77
2023/05/25 06:19:43;;;;;;;13.40;6.28;;;14.90;67.10;;;;;;5015280;28;20108;-76
2023/05/25 06:22:09;;;;;;;16.75;7.20;;;14.90;66.70;;;;;;4998048;28;20030;-76
2023/05/25 06:24:35;;;;;;;22.80;8.93;;;15.00;66.50;;;;;;5015381;28;20058;-76
2023/05/25 06:27:02;;;;;;;16.48;6.47;;;15.00;66.20;;;;;;5005666;28;20559;-76
2023/05/25 06:29:28;;;;;;;13.27;6.32;;;15.00;66.50;;;;;;4994301;28;20566;-76
2023/05/25 06:31:53;;;;;;;14.43;6.47;;;15.10;65.90;;;;;;4994001;28;20141;-76
2023/05/25 06:34:19;;;;;;;13.13;7.13;;;15.20;65.40;;;;;;4994312;28;20064;-77
2023/05/25 06:36:46;;;;;;;16.92;7.28;;;15.20;66.20;;;;;;4996803;28;20062;-77
2023/05/25 06:39:12;;;;;;;18.30;8.38;;;15.30;67.00;;;;;;4999155;28;20385;-77
2023/05/25 06:41:39;;;;;;;19.70;8.07;;;15.30;66.80;;;;;;4997997;28;20030;-76
2023/05/25 06:44:05;;;;;;;22.75;7.60;;;15.30;66.60;;;;;;4998994;28;20057;-77
2023/05/25 06:46:31;;;;;;;22.27;8.55;;;15.40;66.80;;;;;;5016156;28;20436;-76
2023/05/25 06:49:01;;;;;;;19.17;8.27;;;15.40;66.50;;;;;;5000357;28;20377;-76
2023/05/25 06:51:27;;;;;;;15.65;8.20;;;15.50;67.40;;;;;;5003214;28;20030;-76
2023/05/25 06:53:54;;;;;;;17.55;8.07;;;15.50;66.90;;;;;;5018479;28;20076;-77
2023/05/25 06:56:21;;;;;;;20.48;7.93;;;15.60;67.10;;;;;;5018505;28;20026;-76
2023/05/25 06:58:48;;;;;;;17.95;7.93;;;15.70;65.90;;;;;;5002134;28;20068;-77
2023/05/25 07:01:13;;;;;;;18.90;8.07;;;15.80;66.50;;;;;;4998832;28;20469;-77
2023/05/25 07:03:39;;;;;;;18.98;7.68;;;15.80;66.30;;;;;;5007109;28;20030;-76
2023/05/25 07:06:05;;;;;;;13.95;8.80;;;15.80;66.70;;;;;;4981323;28;20034;-76
2023/05/25 07:08:31;;;;;;;15.73;8.02;;;15.90;66.60;;;;;;4997379;28;20026;-76
2023/05/25 07:10:56;;;;;;;17.90;8.68;;;16.00;65.30;;;;;;5001515;28;20030;-77
2023/05/25 07:13:22;;;;;;;16.67;8.73;;;16.10;65.70;;;;;;4998594;28;20023;-76
2023/05/25 07:15:48;;;;;;;17.58;7.88;;;16.20;65.70;;;;;;4981118;28;20026;-77
2023/05/25 07:18:14;;;;;;;17.38;9.02;;;16.30;65.40;;;;;;4981000;28;20033;-76
2023/05/25 07:20:40;;;;;;;22.60;9.68;;;16.60;65.40;;;;;;4999631;28;20076;-76
2023/05/25 07:23:08;;;;;;;19.90;8.88;;;17.20;62.80;;;;;;4999544;28;20080;-77
2023/05/25 07:25:35;;;;;;;20.42;9.23;;;18.60;60.30;;;;;;5000522;28;20046;-75
2023/05/25 07:28:01;;;;;;;14.30;7.18;;;21.30;53.90;;;;;;5014455;28;20511;-75
2023/05/25 07:30:27;;;;;;;17.13;7.93;;;24.00;47.90;;;;;;4998030;28;20066;-76
2023/05/25 07:32:52;;;;;;;17.92;8.50;;;26.30;43.10;;;;;;5015177;28;20034;-76
2023/05/25 07:35:18;;;;;;;18.48;8.02;;;27.90;38.80;;;;;;5006701;28;20060;-76
2023/05/25 07:37:44;;;;;;;13.63;7.65;;;29.20;36.40;;;;;;5025725;28;20034;-76
2023/05/25 07:40:10;;;;;;;14.13;7.90;;;30.00;34.00;;;;;;5003825;28;20505;-76
2023/05/25 07:42:35;;;;;;;21.95;8.55;;;31.00;33.40;;;;;;5018722;28;20030;-75
2023/05/25 07:45:01;;;;;;;13.68;7.35;;;31.90;31.70;;;;;;5000770;28;20041;-75
2023/05/25 07:47:27;;;;;;;16.70;8.45;;;32.80;30.60;;;;;;5015630;28;20034;-73
2023/05/25 07:49:53;;;;;;;15.32;8.38;;;33.60;29.20;;;;;;4992346;28;20034;-74
2023/05/25 07:52:19;;;;;;;15.00;8.20;;;34.00;28.20;;;;;;5017113;28;20033;-74
2023/05/25 07:54:45;;;;;;;16.15;8.85;;;34.60;27.50;;;;;;5013742;28;20026;-73
2023/05/25 07:57:11;;;;;;;12.30;8.27;;;35.00;27.10;;;;;;4999230;28;20025;-73
2023/05/25 07:59:36;;;;;;;14.68;8.82;;;35.50;26.90;;;;;;5016407;28;20049;-73
2023/05/25 08:02:02;;;;;;;14.63;8.77;;;35.80;25.80;;;;;;5017276;28;20034;-73
2023/05/25 08:04:29;;;;;;;15.43;8.98;;;36.00;25.20;;;;;;4997313;28;20085;-74
2023/05/25 08:06:56;;;;;;;13.52;8.75;;;36.40;25.20;;;;;;5017280;28;20029;-74
2023/05/25 08:09:21;;;;;;;13.63;9.07;;;36.60;25.00;;;;;;5010978;28;20036;-73
2023/05/25 08:11:47;;;;;;;15.32;8.55;;;36.80;24.20;;;;;;5027771;28;20101;-74
2023/05/25 08:14:13;;;;;;;16.58;9.25;;;36.30;24.40;;;;;;5013067;28;20039;-73
2023/05/25 08:16:38;;;;;;;18.23;9.15;;;35.30;25.60;;;;;;4996010;28;20033;-72
2023/05/25 08:19:04;;;;;;;14.65;9.10;;;35.90;25.40;;;;;;4996524;28;20054;-74
2023/05/25 08:21:33;;;;;;;12.35;8.00;;;36.30;24.30;;;;;;5013062;28;20029;-75
2023/05/25 08:24:02;;;;;;;15.68;9.27;;;36.60;23.90;;;;;;5015631;28;20103;-74
2023/05/25 08:26:29;;;;;;;14.65;9.35;;;36.80;24.00;;;;;;5014073;28;20030;-74
2023/05/25 08:28:55;;;;;;;20.60;10.10;;;37.10;23.40;;;;;;5022989;28;20037;-74
2023/05/25 08:31:21;;;;;;;15.63;9.15;;;35.40;24.20;;;;;;5025869;28;20140;-74
2023/05/25 08:33:46;;;;;;;16.55;8.75;;;35.70;23.90;;;;;;5022365;28;20069;-74
2023/05/25 08:36:12;;;;;;;15.00;8.75;;;35.60;24.30;;;;;;5024040;28;20041;-75
2023/05/25 08:38:38;;;;;;;15.63;9.18;;;35.20;25.10;;;;;;5007698;28;20037;-75
2023/05/25 08:41:05;;;;;;;13.77;8.50;;;35.40;24.50;;;;;;5006967;28;20021;-75
2023/05/25 08:43:32;;;;;;;16.98;9.93;;;34.90;25.40;;;;;;5025369;28;20029;-75
2023/05/25 08:46:06;;;;;;;15.93;8.38;;;33.90;25.90;;;;;;5022367;28;20107;-75
2023/05/25 08:48:36;;;;;;;21.10;9.88;;;32.30;28.40;;;;;;5023705;28;20033;-75
2023/05/25 08:51:13;;;;;;;16.15;8.77;;;32.50;28.30;;;;;;5015559;28;20112;-75
2023/05/25 08:53:40;;;;;;;16.13;8.43;;;32.40;28.00;;;;;;5002492;28;20022;-76
2023/05/25 08:56:18;;;;;;;13.00;8.88;;;31.90;28.90;;;;;;5006079;28;20492;-74
2023/05/25 08:58:51;;;;;;;17.90;9.27;;;31.50;29.00;;;;;;5007202;28;20062;-74
2023/05/25 09:01:19;;;;;;;17.00;8.77;;;32.40;27.90;;;;;;5006042;28;20570;-74
2023/05/25 09:03:46;;;;;;;17.60;8.60;;;32.80;28.10;;;;;;5006362;28;20079;-75
2023/05/25 09:06:13;;;;;;;14.13;7.55;;;33.70;27.90;;;;;;5008263;28;20093;-74
2023/05/25 09:08:38;;;;;;;16.20;8.63;;;34.40;26.60;;;;;;5023004;28;20018;-74
2023/05/25 09:11:06;;;;;;;17.20;8.90;;;35.10;25.90;;;;;;5024690;28;20034;-74
2023/05/25 09:13:32;;;;;;;17.73;8.25;;;35.10;25.60;;;;;;5006105;28;20076;-75
2023/05/25 09:15:58;;;;;;;13.18;7.03;;;34.30;26.10;;;;;;5025748;28;20021;-75
2023/05/25 09:18:23;;;;;;;15.57;7.78;;;34.00;26.40;;;;;;5019281;28;20037;-75
2023/05/25 09:20:49;;;;;;;17.65;7.45;;;32.70;27.10;;;;;;5007406;28;20480;-75
2023/05/25 09:23:15;;;;;;;13.32;7.20;;;32.10;27.40;;;;;;5020157;28;20801;-75
2023/05/25 09:25:41;;;;;;;17.92;7.90;;;31.90;28.60;;;;;;5021167;28;20017;-75
2023/05/25 09:28:09;;;;;;;14.63;6.97;;;31.70;28.90;;;;;;5021829;28;20036;-75
2023/05/25 09:30:35;;;;;;;18.40;7.13;;;31.00;28.80;;;;;;5022745;28;20117;-75
2023/05/25 09:33:17;;;;;;;17.90;6.60;;;30.90;28.40;;;;;;5001827;28;20032;-74
2023/05/25 09:35:44;;;;;;;12.07;6.65;;;29.80;30.10;;;;;;5015205;28;20021;-75
2023/05/25 09:38:13;;;;;;;13.57;6.38;;;28.80;30.60;;;;;;5018205;28;20028;-74
2023/05/25 09:40:38;;;;;;;15.15;6.53;;;28.80;31.50;;;;;;5001627;28;20045;-74
2023/05/25 09:43:04;;;;;;;14.35;6.88;;;28.60;31.50;;;;;;4995474;28;20034;-75
2023/05/25 09:45:30;;;;;;;13.98;6.55;;;28.60;31.70;;;;;;5004013;28;20038;-74
2023/05/25 09:47:58;;;;;;;14.43;6.30;;;28.30;32.10;;;;;;5008978;28;20034;-75
2023/05/25 09:50:27;;;;;;;18.55;5.97;;;27.70;33.00;;;;;;5013752;28;20030;-75
2023/05/25 09:52:56;;;;;;;12.90;6.18;;;27.30;33.70;;;;;;5014822;28;20133;-74
2023/05/25 09:55:22;;;;;;;15.05;6.85;;;26.70;33.30;;;;;;4993013;28;20061;-74
2023/05/25 09:57:53;;;;;;;12.57;6.22;;;26.60;34.10;;;;;;5015066;28;20497;-75
2023/05/25 10:00:18;;;;;;;13.60;6.45;;;26.60;33.90;;;;;;4998007;28;20057;-74
2023/05/25 10:02:44;;;;;;;16.17;5.88;;;26.80;33.60;;;;;;5016409;28;20041;-75
2023/05/25 10:05:10;;;;;;;16.52;7.10;;;27.30;33.30;;;;;;5004041;28;20467;-74
2023/05/25 10:07:37;;;;;;;11.43;5.80;;;28.30;32.30;;;;;;4978188;28;20061;-72
2023/05/25 10:10:06;;;;;;;11.55;5.72;;;28.50;32.20;;;;;;4999302;28;20026;-72
2023/05/25 10:12:32;;;;;;;9.02;4.80;;;29.30;31.00;;;;;;5015241;28;20110;-72
2023/05/25 10:15:02;;;;;;;11.18;4.68;;;29.60;30.30;;;;;;4997956;28;20033;-72
2023/05/25 10:17:32;;;;;;;11.40;5.40;;;29.60;30.20;;;;;;5005062;28;20096;-72
2023/05/25 10:19:59;;;;;;;8.05;4.45;;;28.90;30.40;;;;;;5016438;28;20100;-72
2023/05/25 10:22:50;;;;;;;9.50;5.10;;;29.10;30.30;;;;;;5001811;28;20493;-72
2023/05/25 10:25:42;;;;;;;13.75;5.38;;;28.70;30.60;;;;;;4999541;28;20037;-72
2023/05/25 10:28:30;;;;;;;11.18;5.55;;;29.10;30.10;;;;;;4999553;28;20034;-72
2023/05/25 10:30:58;;;;;;;12.35;5.07;;;28.70;30.20;;;;;;4998597;28;20054;-72
2023/05/25 10:33:24;;;;;;;9.43;4.35;;;28.40;30.70;;;;;;5007170;28;20037;-72
2023/05/25 10:35:50;;;;;;;9.65;4.20;;;28.30;31.00;;;;;;5001122;28;20030;-72
2023/05/25 10:38:21;;;;;;;16.58;5.35;;;28.10;31.80;;;;;;5004037;28;20031;-72
2023/05/25 10:40:49;;;;;;;10.57;4.38;;;27.60;32.90;;;;;;4981641;28;20026;-72
2023/05/25 10:43:17;;;;;;;7.18;4.10;;;27.30;31.90;;;;;;4996408;28;20522;-71
2023/05/25 10:45:43;;;;;;;9.35;4.00;;;26.90;31.60;;;;;;5009716;28;20045;-72
2023/05/25 10:48:09;;;;;;;6.53;3.55;;;26.30;31.90;;;;;;5009344;28;20034;-73
2023/05/25 10:50:35;;;;;;;6.70;3.85;;;26.00;33.30;;;;;;4998480;28;20093;-73
2023/05/25 10:53:11;;;;;;;8.93;4.20;;;25.80;34.40;;;;;;4998865;28;20030;-72
2023/05/25 10:55:55;;;;;;;8.80;3.80;;;25.80;34.70;;;;;;4988466;28;20033;-73
2023/05/25 10:58:22;;;;;;;9.07;3.90;;;25.70;35.00;;;;;;5016389;28;20030;-72
2023/05/25 11:01:01;;;;;;;10.05;4.22;;;25.60;34.50;;;;;;5018283;28;20061;-72
2023/05/25 11:03:49;;;;;;;9.82;3.63;;;25.50;34.90;;;;;;5017046;28;20411;-71
2023/05/25 11:06:16;;;;;;;11.07;4.00;;;25.40;34.80;;;;;;4978567;28;20030;-72
2023/05/25 11:08:54;;;;;;;8.98;3.70;;;25.30;34.80;;;;;;4997706;28;20050;-73
2023/05/25 11:11:21;;;;;;;9.02;4.07;;;25.20;34.20;;;;;;5009869;28;20029;-72
2023/05/25 11:13:49;;;;;;;7.10;3.70;;;25.20;34.30;;;;;;4998704;28;20077;-72
2023/05/25 11:16:16;;;;;;;8.82;3.38;;;25.10;34.20;;;;;;4998526;28;20054;-72
2023/05/25 11:18:52;;;;;;;5.75;3.30;;;25.00;35.80;;;;;;5017266;28;20061;-72
2023/05/25 11:21:25;;;;;;;8.90;3.90;;;25.00;35.60;;;;;;4995358;28;20050;-73
2023/05/25 11:24:15;;;;;;;7.50;3.15;;;24.90;35.20;;;;;;4980984;28;20030;-73
2023/05/25 11:26:54;;;;;;;;;;;24.90;35.10;;;;;;4977810;28;20026;-72
2023/05/25 11:29:24;;;;;;;7.75;3.50;;;24.80;35.20;;;;;;5011727;28;19917;-73
2023/05/25 11:31:54;;;;;;;8.10;3.38;;;24.80;34.70;;;;;;4998052;28;20088;-73
2023/05/25 11:34:24;;;;;;;10.45;3.67;;;24.70;35.00;;;;;;5013696;28;20030;-73
2023/05/25 11:37:00;;;;;;;8.63;3.08;;;24.70;35.70;;;;;;5017775;28;20029;-73
2023/05/25 11:39:27;;;;;;;7.85;2.75;;;24.70;35.70;;;;;;5004431;28;20036;-74
2023/05/25 11:41:55;;;;;;;8.02;3.17;;;24.70;35.70;;;;;;4998050;28;20033;-72
2023/05/25 11:44:32;;;;;;;7.13;2.90;;;24.70;35.40;;;;;;4980356;28;20081;-72
2023/05/25 11:47:21;;;;;;;5.88;3.60;;;24.80;36.10;;;;;;4997932;28;20023;-72
2023/05/25 11:49:48;;;;;;;9.68;3.20;;;24.80;34.90;;;;;;4997920;28;20476;-72
2023/05/25 11:52:18;;;;;;;5.45;2.50;;;24.70;34.50;;;;;;4997884;28;20034;-73
2023/05/25 11:54:45;;;;;;;7.18;2.85;;;24.70;34.90;;;;;;4989055;28;20602;-73
2023/05/25 11:57:23;;;;;;;9.48;3.72;;;24.80;37.00;;;;;;5003096;28;20033;-75
2023/05/25 11:59:49;;;;;;;7.80;3.38;;;24.80;35.70;;;;;;5017298;28;20014;-72
2023/05/25 12:02:15;;;;;;;7.10;2.70;;;24.80;35.00;;;;;;4999520;28;20049;-72
2023/05/25 12:04:51;;;;;;;8.88;3.47;;;24.70;34.60;;;;;;5016266;28;20049;-73
2023/05/25 12:07:16;;;;;;;5.70;2.60;;;24.70;35.10;;;;;;4995974;28;20034;-73
2023/05/25 12:09:42;;;;;;;10.18;2.92;;;24.70;35.80;;;;;;4997755;28;20089;-73
2023/05/25 12:12:07;;;;;;;7.80;2.95;;;24.70;34.70;;;;;;5032702;28;20052;-74
2023/05/25 12:14:36;;;;;;;8.55;3.25;;;24.70;35.10;;;;;;5007357;28;20057;-73
2023/05/25 12:17:01;;;;;;;6.75;2.95;;;24.70;35.30;;;;;;4997301;28;20026;-73
2023/05/25 12:19:27;;;;;;;6.78;2.70;;;24.70;35.40;;;;;;4996511;28;20026;-73
2023/05/25 12:21:53;;;;;;;7.05;2.50;;;24.60;35.40;;;;;;4997720;28;20034;-73
2023/05/25 12:24:19;;;;;;;6.30;2.55;;;24.70;35.40;;;;;;4997404;28;20101;-73
2023/05/25 12:26:49;;;;;;;6.38;2.17;;;24.70;35.90;;;;;;4997375;28;20049;-73
2023/05/25 12:29:15;;;;;;;7.15;2.53;;;24.70;35.80;;;;;;4996839;28;20022;-73
2023/05/25 12:31:41;;;;;;;7.10;2.45;;;24.70;35.10;;;;;;4997082;28;20057;-73
2023/05/25 12:34:10;;;;;;;6.78;2.78;;;24.70;35.20;;;;;;5006632;28;20022;-73
2023/05/25 12:36:42;;;;;;;7.68;2.83;;;24.70;36.30;;;;;;4996532;28;20026;-73
2023/05/25 12:39:10;;;;;;;9.35;3.22;;;24.70;35.60;;;;;;4996980;28;20106;-73
2023/05/25 12:41:49;;;;;;;5.68;2.78;;;24.70;35.50;;;;;;4997125;28;20027;-73
2023/05/25 12:44:22;;;;;;;9.27;3.85;;;24.70;35.40;;;;;;4996540;28;20037;-74
2023/05/25 12:46:49;;;;;;;8.82;2.85;;;24.60;34.80;;;;;;5016249;28;20407;-75
2023/05/25 12:49:25;;;;;;;5.32;2.50;;;24.60;35.00;;;;;;5016347;28;20044;-73
2023/05/25 12:51:51;;;;;;;8.13;2.97;;;24.70;35.80;;;;;;5016274;28;20026;-73
2023/05/25 12:54:32;;;;;;;6.97;2.42;;;24.70;36.10;;;;;;4997175;28;20052;-73
2023/05/25 12:56:58;;;;;;;8.98;2.75;;;24.70;35.00;;;;;;4979230;28;20073;-73
2023/05/25 12:59:24;;;;;;;7.22;2.40;;;24.70;34.70;;;;;;4979119;28;20524;-73
2023/05/25 13:01:50;;;;;;;3.92;2.30;;;24.70;34.50;;;;;;5003514;28;20057;-73
2023/05/25 13:04:15;;;;;;;6.93;2.60;;;24.60;35.00;;;;;;5015569;28;20046;-73
2023/05/25 13:06:41;;;;;;;8.70;3.00;;;24.60;36.00;;;;;;4998879;28;20061;-73
2023/05/25 13:09:06;;;;;;;5.32;2.60;;;24.40;35.40;;;;;;4996484;28;20022;-73
2023/05/25 13:11:32;;;;;;;7.32;2.80;;;24.50;35.80;;;;;;5022207;28;20033;-73
2023/05/25 13:13:58;;;;;;;8.40;2.92;;;24.50;35.30;;;;;;5035788;28;20117;-73
2023/05/25 13:16:24;;;;;;;3.83;2.33;;;24.50;35.70;;;;;;4997404;28;20034;-73
2023/05/25 13:18:50;;;;;;;8.77;3.03;;;24.50;34.20;;;;;;5001587;28;20064;-76
2023/05/25 13:21:16;;;;;;;7.07;2.53;;;24.50;34.70;;;;;;5001682;28;20034;-75
2023/05/25 13:23:42;;;;;;;7.68;2.58;;;24.50;36.10;;;;;;4994780;28;20033;-74
2023/05/25 13:26:07;;;;;;;7.38;2.72;;;24.60;36.40;;;;;;4997651;28;20037;-74
2023/05/25 13:28:33;;;;;;;8.63;3.17;;;24.60;36.00;;;;;;5007299;28;20065;-74
2023/05/25 13:30:59;;;;;;;6.72;2.72;;;24.70;35.60;;;;;;4996196;28;20077;-74
2023/05/25 13:33:24;;;;;;;7.22;2.78;;;24.70;35.90;;;;;;4986563;28;20081;-75
2023/05/25 13:36:06;;;;;;;6.28;3.15;;;24.80;35.60;;;;;;5015924;28;20402;-74
2023/05/25 13:38:32;;;;;;;7.60;2.80;;;24.80;35.60;;;;;;5008727;28;20572;-74
2023/05/25 13:40:59;;;;;;;5.22;2.65;;;24.80;35.70;;;;;;4997663;28;20026;-74
2023/05/25 13:43:25;;;;;;;7.20;3.05;;;24.70;35.10;;;;;;5015416;28;20022;-74
2023/05/25 13:45:51;;;;;;;7.20;3.00;;;24.70;35.40;;;;;;5000805;28;20030;-75
2023/05/25 13:48:16;;;;;;;8.60;3.00;;;24.70;35.10;;;;;;5001708;28;20031;-75
2023/05/25 13:50:43;;;;;;;5.78;2.63;;;24.70;35.20;;;;;;5000083;28;20034;-74
2023/05/25 13:53:10;;;;;;;5.45;2.92;;;24.70;35.10;;;;;;4999895;28;20030;-74
2023/05/25 13:55:35;;;;;;;4.55;2.55;;;24.70;35.30;;;;;;4999893;28;20811;-74
2023/05/25 13:58:01;;;;;;;7.28;2.95;;;24.80;34.70;;;;;;5006327;28;20083;-74
2023/05/25 14:00:27;;;;;;;5.57;2.78;;;24.80;35.00;;;;;;5016700;28;20037;-74
2023/05/25 14:02:53;;;;;;;5.95;2.72;;;24.80;34.90;;;;;;5003937;28;20017;-74
2023/05/25 14:05:19;;;;;;;13.27;4.65;;;24.80;35.00;;;;;;4999917;28;20033;-74
2023/05/25 14:07:46;;;;;;;9.68;2.75;;;24.80;34.30;;;;;;5000029;28;20065;-74
2023/05/25 14:10:12;;;;;;;4.57;2.75;;;24.70;34.60;;;;;;5003558;28;20034;-74
2023/05/25 14:12:38;;;;;;;4.60;2.50;;;24.70;36.20;;;;;;5038747;28;20164;-75
2023/05/25 14:15:04;;;;;;;6.82;3.33;;;24.70;36.00;;;;;;4999924;28;20054;-75
2023/05/25 14:17:30;;;;;;;4.35;2.47;;;24.70;35.40;;;;;;4999377;28;20038;-75
2023/05/25 14:19:57;;;;;;;6.25;2.35;;;24.70;35.80;;;;;;4981415;28;20039;-74
2023/05/25 14:22:23;;;;;;;6.13;2.50;;;24.80;35.30;;;;;;4998382;28;20026;-74
2023/05/25 14:24:48;;;;;;;8.73;3.20;;;24.80;34.80;;;;;;4999521;28;20141;-74
2023/05/25 14:27:19;;;;;;;6.55;2.47;;;24.80;34.60;;;;;;4999078;28;20026;-74
2023/05/25 14:29:48;;;;;;;7.28;2.53;;;24.70;34.50;;;;;;4982011;28;20030;-74
2023/05/25 14:32:15;;;;;;;11.00;3.60;;;24.70;35.30;;;;;;4997994;28;20069;-74
2023/05/25 14:34:41;;;;;;;6.18;3.70;;;24.80;36.90;;;;;;5012297;28;20042;-74
2023/05/25 14:37:07;;;;;;;6.85;3.60;;;24.80;35.00;;;;;;4981564;28;20018;-74
2023/05/25 14:39:33;;;;;;;5.03;2.70;;;24.80;34.80;;;;;;4999341;28;20026;-74
2023/05/25 14:41:58;;;;;;;7.70;3.05;;;24.80;34.20;;;;;;4999509;28;20093;-74
2023/05/25 14:44:24;;;;;;;5.15;2.88;;;24.80;34.60;;;;;;4999132;28;20031;-74
2023/05/25 14:46:50;;;;;;;4.43;2.20;;;24.80;34.30;;;;;;5012710;28;20038;-74
2023/05/25 14:49:18;;;;;;;8.00;2.45;;;24.80;34.80;;;;;;4998971;28;20093;-74
2023/05/25 14:51:44;;;;;;;5.40;2.67;;;24.80;34.90;;;;;;4998783;28;20042;-74
2023/05/25 14:54:12;;;;;;;6.03;2.65;;;24.80;34.80;;;;;;4998505;28;20034;-74
2023/05/25 14:56:37;;;;;;;6.22;3.15;;;24.80;34.90;;;;;;4999165;28;20019;-74
2023/05/25 14:59:03;;;;;;;6.85;3.08;;;24.70;34.30;;;;;;5017307;28;20041;-74
2023/05/25 15:01:29;;;;;;;9.80;3.22;;;24.60;35.10;;;;;;5018517;28;20468;-74
2023/05/25 15:03:55;;;;;;;6.47;3.20;;;24.70;35.30;;;;;;5006079;28;20030;-74
2023/05/25 15:06:20;;;;;;;7.20;3.47;;;24.70;35.50;;;;;;5018469;28;20838;-74
2023/05/25 15:08:46;;;;;;;9.88;2.97;;;24.70;35.50;;;;;;5014074;28;20034;-74
2023/05/25 15:11:11;;;;;;;10.27;3.00;;;24.70;35.60;;;;;;5018638;28;20060;-74
2023/05/25 15:13:39;;;;;;;8.27;2.78;;;24.80;36.10;;;;;;5006418;28;20027;-74
2023/05/25 15:16:05;;;;;;;7.65;3.00;;;24.70;36.00;;;;;;4998639;28;20029;-74
2023/05/25 15:18:30;;;;;;;8.52;3.15;;;24.80;35.90;;;;;;4998443;28;20397;-74
2023/05/25 15:20:56;;;;;;;5.38;2.70;;;24.70;36.80;;;;;;5017293;28;20507;-74
2023/05/25 15:23:23;;;;;;;5.57;2.92;;;24.80;36.50;;;;;;5018043;28;20026;-74
2023/05/25 15:25:48;;;;;;;8.93;3.30;;;24.70;36.10;;;;;;5017234;28;20030;-74
2023/05/25 15:28:14;;;;;;;6.15;2.53;;;24.80;36.20;;;;;;5011727;28;20061;-74
2023/05/25 15:30:39;;;;;;;7.72;3.05;;;24.80;36.40;;;;;;4998153;28;20061;-74
2023/05/25 15:33:05;;;;;;;7.22;2.95;;;24.80;37.00;;;;;;5008213;28;20064;-74
2023/05/25 15:35:31;;;;;;;6.15;2.72;;;24.70;37.00;;;;;;5014859;28;20072;-73
2023/05/25 15:38:00;;;;;;;6.60;2.70;;;24.80;37.30;;;;;;5024533;28;20030;-74
2023/05/25 15:40:26;;;;;;;5.53;2.95;;;24.80;37.70;;;;;;5024943;28;20033;-75
2023/05/25 15:42:52;;;;;;;5.10;2.80;;;24.80;37.70;;;;;;5023411;28;20034;-76
2023/05/25 15:45:17;;;;;;;5.93;2.95;;;24.80;38.10;;;;;;5023463;28;20033;-76
2023/05/25 15:47:43;;;;;;;6.18;2.63;;;24.90;37.90;;;;;;5026657;28;20022;-76
2023/05/25 15:50:09;;;;;;;9.57;3.08;;;24.90;38.40;;;;;;5024776;28;20723;-75
2023/05/25 15:52:35;;;;;;;5.15;2.88;;;24.90;38.40;;;;;;5002814;28;20112;-75
2023/05/25 15:55:01;;;;;;;7.22;3.28;;;24.90;38.40;;;;;;5009484;28;20065;-76
2023/05/25 15:57:26;;;;;;;9.02;2.95;;;24.90;38.80;;;;;;5017121;28;20506;-82
2023/05/25 15:59:53;;;;;;;9.27;3.10;;;24.80;38.30;;;;;;5016603;28;20031;-81
2023/05/25 16:02:18;;;;;;;8.25;3.30;;;24.70;38.60;;;;;;5007803;28;20023;-77
2023/05/25 16:04:44;;;;;;;8.65;2.83;;;24.70;39.00;;;;;;5004497;28;20435;-77
2023/05/25 16:07:10;;;;;;;8.45;3.33;;;24.70;39.00;;;;;;5004620;28;20092;-80
2023/05/25 16:09:35;;;;;;;9.10;3.45;;;24.70;38.80;;;;;;4996654;28;20036;-75
2023/05/25 16:12:01;;;;;;;10.45;2.80;;;24.70;39.10;;;;;;5016205;28;20037;-75
2023/05/25 16:14:27;;;;;;;9.05;3.30;;;24.70;39.00;;;;;;4995683;28;20121;-75
2023/05/25 16:16:53;;;;;;;8.90;3.03;;;24.70;38.70;;;;;;5016490;28;20572;-75
2023/05/25 16:19:18;;;;;;;7.57;3.03;;;24.70;39.10;;;;;;5016687;28;20076;-76
2023/05/25 16:21:44;;;;;;;8.65;2.95;;;24.70;39.00;;;;;;5015907;28;20088;-76
2023/05/25 16:24:10;;;;;;;8.95;2.67;;;24.60;39.40;;;;;;5015126;28;20021;-75
2023/05/25 16:26:35;;;;;;;6.47;3.00;;;24.50;39.60;;;;;;4998315;28;20096;-75
2023/05/25 16:29:01;;;;;;;6.97;2.80;;;24.50;40.60;;;;;;5016317;28;20029;-75
2023/05/25 16:31:27;;;;;;;7.18;2.88;;;24.50;40.20;;;;;;5010632;28;20117;-75
2023/05/25 16:33:53;;;;;;;5.68;2.80;;;24.40;40.50;;;;;;5013257;28;20500;-75
2023/05/25 16:36:18;;;;;;;6.18;2.90;;;24.40;40.90;;;;;;5015624;28;20472;-75
2023/05/25 16:38:44;;;;;;;5.15;2.67;;;24.30;40.50;;;;;;5004932;28;20030;-75
2023/05/25 16:41:11;;;;;;;7.82;3.03;;;24.30;40.50;;;;;;5012327;28;20853;-75
2023/05/25 16:43:37;;;;;;;10.90;3.38;;;24.30;40.30;;;;;;5015460;28;20034;-75
2023/05/25 16:46:03;;;;;;;4.65;2.53;;;24.30;40.50;;;;;;5016019;28;20076;-76
2023/05/25 16:48:30;;;;;;;8.88;3.67;;;24.20;40.50;;;;;;5015228;28;20038;-73
2023/05/25 16:50:56;;;;;;;11.13;2.85;;;24.10;40.90;;;;;;5015216;28;20049;-75
2023/05/25 16:53:22;;;;;;;7.82;3.03;;;24.00;41.10;;;;;;5016060;28;20040;-75
2023/05/25 16:55:47;;;;;;;7.72;3.10;;;24.10;41.40;;;;;;5015725;28;20514;-76
2023/05/25 16:58:13;;;;;;;8.77;3.25;;;24.00;41.80;;;;;;5004260;28;20084;-77
2023/05/25 17:00:39;;;;;;;10.02;3.05;;;24.10;41.50;;;;;;5007615;28;20493;-75
2023/05/25 17:03:05;;;;;;;4.63;2.75;;;24.00;42.00;;;;;;5010964;28;20956;-75
2023/05/25 17:05:31;;;;;;;9.43;3.28;;;23.90;42.10;;;;;;5010809;28;20026;-75
2023/05/25 17:07:57;;;;;;;7.57;2.75;;;23.90;42.00;;;;;;5022758;28;20037;-73
2023/05/25 17:10:22;;;;;;;6.78;3.22;;;23.80;41.80;;;;;;5004645;28;20025;-74
2023/05/25 17:12:48;;;;;;;6.30;4.00;;;23.80;42.00;;;;;;5016559;28;20032;-73